Weather at Bellingham International Airport

Public forecast

Using degrees Fahrenheit for public forecast. Weather courtesy of forecast.io.

Current aviation weather report (METAR) for Bellingham International Airport

2024/06/14 13:53 (retrieved 48 minutes ago)

KBLI 141353Z 16012G18KT 10SM OVC070 12/06 A3012 RMK AO2 SLP204 T01170061

Aviation forecast (TAF) for Bellingham International Airport

2024/06/14 12:30 (retrieved 2 hours ago)

TAF KBLI 141127Z 1412/1512 17010KT P6SM BKN080 FM141600 17010KT P6SM -SHRA BKN040 FM150000 18010KT P6SM VCSH BKN060 FM150500 17007KT P6SM -SHRA OVC040